Latest Weather Observations for Coonawarra

IDS60801

Issued at 6:05 pm CDT Thursday 23 October 2014 (issued every 30 minutes, with the page automatically refreshed every 10 minutes)

About weather observations | Map of weather stations | Latest weather observations for SA | Other Formats
Station Details ID: 026091 Name: COONAWARRA Lat: -37.29 Lon: 140.83 Height: 57.0 m
Data from the previous 72 hours. | See also: Recent months at Coonawarra
Date/Time
CDT
Temp
°C
App
Temp
°C
Dew
Point
Rel
Hum
%
Delta-T
°C
Wind Press
QNH
hPa
Press
MSL
hPa
Rain
since 9 am
mm
Dir
 
Spd
km/h
Gust
km/h
Spd
kts
Gust
kts
23/06:00pm 23.2 20.6 12.1 49 6.3 SE 17 24 9 13 1013.8 1013.8 0.0
23/05:30pm 23.7 21.1 12.1 48 6.6 SSE 17 24 9 13 1013.9 1013.9 0.0
23/05:00pm 24.1 21.3 11.5 45 7.1 S 17 24 9 13 1014.1 1014.1 0.0
23/04:30pm 24.4 21.6 11.5 44 7.3 SSE 17 20 9 11 1014.0 1014.0 0.0
23/04:00pm 24.3 22.0 11.8 45 7.1 SSE 15 24 8 13 1014.0 1014.0 0.0
23/03:30pm 23.9 21.6 11.7 46 6.9 SE 15 20 8 11 1014.3 1014.3 0.0
23/03:00pm 23.4 20.6 11.3 46 6.8 SE 17 24 9 13 1014.8 1014.8 0.0
23/02:30pm 23.3 20.5 11.3 46 6.7 SE 17 28 9 15 1015.0 1015.0 0.0
23/02:00pm 22.4 19.5 11.0 48 6.3 ESE 17 32 9 17 1015.4 1015.4 0.0
23/01:30pm 21.8 18.2 10.7 49 6.1 SE 20 30 11 16 1015.8 1015.8 0.0
23/01:00pm 21.4 18.4 10.6 50 5.9 SSE 17 32 9 17 1016.1 1016.1 0.0
23/12:30pm 20.0 16.5 10.8 55 5.0 SSE 20 28 11 15 1016.7 1016.7 0.0
23/12:00pm 19.3 15.3 10.4 56 4.8 SSE 22 32 12 17 1017.2 1017.2 0.0
23/11:30am 18.2 14.7 10.8 62 4.0 SE 20 30 11 16 1017.7 1017.7 0.0
23/11:00am 18.1 13.8 10.7 62 4.0 SE 24 39 13 21 1018.0 1018.0 0.0
23/10:30am 16.8 12.1 10.6 67 3.3 SE 26 37 14 20 1018.5 1018.5 0.0
23/10:00am 16.2 12.2 10.5 69 3.0 SE 22 32 12 17 1018.6 1018.6 0.0
23/09:30am 15.0 10.6 10.4 74 2.4 SE 24 35 13 19 1018.9 1018.9 0.0
23/09:00am 14.6 10.5 10.2 75 2.3 SE 22 32 12 17 1019.0 1019.0 0.0
23/08:30am 14.1 10.1 10.3 78 2.0 SE 22 30 12 16 1019.1 1019.1 0.0
23/08:00am 13.9 8.6 10.0 77 2.0 SE 28 43 15 23 1018.9 1018.9 0.0
23/07:30am 13.6 8.7 10.1 79 1.8 SE 26 37 14 20 1019.0 1019.0 0.0
23/07:00am 13.5 9.1 10.4 81 1.6 SE 24 35 13 19 1018.9 1018.9 0.0
23/06:30am 13.5 8.7 10.2 80 1.7 SSE 26 41 14 22 1018.8 1018.8 0.0
23/06:00am 13.4 9.0 10.3 81 1.6 SE 24 35 13 19 1018.6 1018.6 0.0
23/05:30am 13.3 9.3 10.6 84 1.4 SE 22 35 12 19 1018.7 1018.7 0.0
23/05:00am 13.3 9.7 10.6 84 1.4 SE 20 35 11 19 1018.7 1018.7 0.0
23/04:30am 13.3 8.2 10.6 84 1.4 SE 28 39 15 21 1018.7 1018.7 0.0
23/04:00am 13.3 8.1 10.4 82 1.5 SSE 28 39 15 21 1018.7 1018.7 0.0
23/03:30am 13.3 8.2 10.6 84 1.4 SE 28 43 15 23 1018.8 1018.8 0.0
23/03:00am 13.4 9.1 10.9 85 1.3 SSE 24 35 13 19 1018.9 1018.9 0.0
23/02:30am 13.5 8.4 10.6 82 1.5 SSE 28 39 15 21 1019.1 1019.1 0.0
23/02:00am 13.5 9.3 11.0 85 1.3 SSE 24 33 13 18 1019.2 1019.2 0.0
23/01:30am 13.6 9.7 10.9 84 1.4 S 22 35 12 19 1019.3 1019.3 0.0
23/01:00am 13.7 9.8 10.8 83 1.5 SSE 22 37 12 20 1019.5 1019.5 0.0
23/12:30am 13.9 10.6 10.9 82 1.6 SSE 19 28 10 15 1019.6 1019.6 0.0
23/12:00am 14.0 10.5 11.0 82 1.6 SSE 20 28 11 15 1019.7 1019.7 0.0
 
Date/Time
CDT
Temp
°C
App
Temp
°C
Dew
Point
Rel
Hum
%
Delta-T
°C
Wind Press
QNH
hPa
Press
MSL
hPa
Rain
since 9 am
mm
Dir
 
Spd
km/h
Gust
km/h
Spd
kts
Gust
kts
22/11:30pm 14.1 9.4 10.7 80 1.8 SSE 26 33 14 18 1019.7 1019.7 0.0
22/11:00pm 14.2 9.5 10.8 80 1.8 SSE 26 39 14 21 1019.8 1019.8 0.0
22/10:30pm 14.4 10.6 11.0 80 1.8 SSE 22 35 12 19 1019.9 1019.9 0.0
22/10:00pm 14.4 10.6 11.2 81 1.7 SSE 22 37 12 20 1019.9 1019.9 0.0
22/09:30pm 14.4 9.8 11.2 81 1.7 SSE 26 35 14 19 1020.0 1020.0 0.0
22/09:00pm 14.5 10.9 11.7 83 1.5 SSE 22 39 12 21 1019.8 1019.8 0.0
22/08:30pm 14.7 9.9 11.5 81 1.7 SSE 28 39 15 21 1019.4 1019.4 0.0
22/08:00pm 15.1 10.3 11.6 79 1.9 S 28 39 15 21 1018.9 1018.9 0.0
22/07:30pm 15.7 11.7 11.8 77 2.1 S 24 33 13 18 1018.6 1018.6 0.0
22/07:00pm 17.6 13.7 12.2 70 3.0 S 24 32 13 17 1018.1 1018.1 0.0
22/06:30pm 19.2 14.1 10.7 58 4.6 S 28 37 15 20 1017.4 1017.4 0.0
22/06:00pm 19.8 15.1 12.1 61 4.3 S 28 35 15 19 1017.0 1017.0 0.0
22/05:30pm 20.9 15.5 12.2 57 4.9 S 32 41 17 22 1016.7 1016.7 0.0
22/05:00pm 22.6 17.5 11.8 50 6.1 S 30 35 16 19 1016.3 1016.3 0.0
22/04:30pm 23.8 19.7 12.7 49 6.4 SSW 26 39 14 21 1016.1 1016.1 0.0
22/04:00pm 24.8 19.9 12.7 47 7.0 SSW 30 37 16 20 1016.0 1016.0 0.0
22/03:30pm 26.1 21.0 12.0 41 8.1 SSW 30 41 16 22 1015.8 1015.8 0.0
22/03:00pm 26.7 21.7 12.2 40 8.4 SSW 30 39 16 21 1015.7 1015.7 0.0
22/02:30pm 27.4 22.3 13.8 43 8.1 SSW 33 46 18 25 1015.7 1015.7 0.0
22/02:00pm 30.2 25.3 11.4 31 10.9 SSW 28 39 15 21 1015.5 1015.5 0.0
22/01:30pm 30.7 26.1 10.9 29 11.4 SSW 26 33 14 18 1015.6 1015.6 0.0
22/01:00pm 31.4 28.6 8.6 24 12.7 W 13 19 7 10 1015.7 1015.7 0.0
22/12:30pm 30.2 27.7 8.2 25 12.1 WNW 11 17 6 9 1016.1 1016.1 0.0
22/12:00pm 29.2 25.0 7.6 25 11.7 WNW 19 26 10 14 1016.4 1016.4 0.0
22/11:30am 28.1 24.5 8.3 28 10.8 WNW 17 22 9 12 1016.7 1016.7 0.0
22/11:00am 26.7 24.3 8.7 32 9.8 WNW 11 15 6 8 1016.8 1016.8 0.0
22/10:30am 24.1 22.5 10.1 41 7.7 W 9 15 5 8 1017.6 1017.6 0.0
22/10:00am 25.3 22.5 9.9 37 8.5 WNW 15 20 8 11 1017.6 1017.6 0.0
22/09:30am 25.7 22.9 8.7 34 9.2 N 13 20 7 11 1016.9 1016.9 0.0
22/09:00am 24.1 21.6 8.1 36 8.5 N 11 15 6 8 1017.4 1017.4 0.0
22/08:30am 23.3 20.9 8.5 38 7.9 NE 11 15 6 8 1016.8 1016.8 0.0
22/08:00am 21.6 18.6 7.8 41 7.2 NNE 13 17 7 9 1016.8 1016.8 0.0
22/07:30am 21.3 19.0 7.6 41 7.1 NNE 9 15 5 8 1016.8 1016.8 0.0
22/07:00am 20.7 18.0 7.5 42 6.8 NNE 11 15 6 8 1016.8 1016.8 0.0
22/06:30am 19.7 16.6 7.1 44 6.4 NE 13 17 7 9 1016.8 1016.8 0.0
22/06:00am 19.6 16.4 6.7 43 6.5 NNE 13 19 7 10 1016.7 1016.7 0.0
22/05:30am 19.2 16.0 6.9 44 6.2 NE 13 17 7 9 1016.7 1016.7 0.0
22/05:00am 19.3 17.3 7.3 45 6.1 NNE 7 11 4 6 1016.9 1016.9 0.0
22/04:30am 20.7 17.1 6.7 40 7.1 NE 15 22 8 12 1016.8 1016.8 0.0
22/04:00am 21.4 18.9 6.7 38 7.5 N 9 13 5 7 1017.2 1017.2 0.0
22/03:30am 22.0 18.7 6.5 36 7.9 NNE 13 20 7 11 1017.0 1017.0 0.0
22/03:00am 22.4 17.8 5.7 33 8.4 NNE 19 30 10 16 1017.0 1017.0 0.0
22/02:30am 22.4 17.8 5.7 33 8.4 NNE 19 28 10 15 1017.0 1017.0 0.0
22/02:00am 23.0 17.4 5.2 31 8.9 NE 24 37 13 20 1017.1 1017.1 0.0
22/01:30am 23.8 17.7 4.8 29 9.5 NE 26 35 14 19 1017.2 1017.2 0.0
22/01:00am 24.0 17.9 4.8 29 9.6 NE 26 39 14 21 1017.5 1017.5 0.0
22/12:30am 23.8 18.4 4.4 28 9.6 NE 22 33 12 18 1018.0 1018.0 0.0
22/12:00am 23.7 18.8 4.2 28 9.6 NE 19 28 10 15 1018.2 1018.2 0.0
 
Date/Time
CDT
Temp
°C
App
Temp
°C
Dew
Point
Rel
Hum
%
Delta-T
°C
Wind Press
QNH
hPa
Press
MSL
hPa
Rain
since 9 am
mm
Dir
 
Spd
km/h
Gust
km/h
Spd
kts
Gust
kts
21/11:30pm 24.4 18.8 3.6 26 10.2 NE 22 32 12 17 1018.4 1018.4 0.0
21/11:00pm 24.6 18.9 2.9 24 10.5 NE 22 32 12 17 1018.6 1018.6 0.0
21/10:30pm 25.0 19.6 2.7 23 10.8 NE 20 30 11 16 1018.7 1018.7 0.0
21/10:00pm 24.2 19.5 3.2 25 10.2 ENE 17 22 9 12 1018.7 1018.7 0.0
21/09:30pm 22.7 19.0 4.4 30 9.0 ENE 13 15 7 8 1018.9 1018.9 0.0
21/09:00pm 23.1 19.8 4.4 29 9.2 E 11 15 6 8 1018.9 1018.9 0.0
21/08:30pm 23.6 20.3 4.7 29 9.4 E 11 15 6 8 1018.9 1018.9 0.0
21/08:00pm 23.7 20.5 5.2 30 9.3 E 11 13 6 7 1018.9 1018.9 0.0
21/07:30pm 24.9 21.8 5.4 28 9.9 E 11 13 6 7 1018.9 1018.9 0.0
21/07:00pm 27.0 24.3 5.5 25 11.1 E 9 11 5 6 1018.8 1018.8 0.0
21/06:30pm 28.3 25.5 5.0 22 12.0 ENE 9 13 5 7 1018.7 1018.7 0.0
21/06:00pm 30.2 25.8 2.6 17 13.8 ENE 15 20 8 11 1018.7 1018.7 0.0
21/05:30pm 31.0 26.3 2.9 16 14.2 NE 17 24 9 13 1019.0 1019.0 0.0
21/05:00pm 30.7 26.3 2.6 16 14.1 ENE 15 20 8 11 1019.1 1019.1 0.0
21/04:30pm 31.0 26.3 2.9 16 14.2 NE 17 24 9 13 1019.3 1019.3 0.0
21/04:00pm 30.6 26.0 3.5 18 13.8 ENE 17 24 9 13 1019.5 1019.5 0.0
21/03:30pm 30.3 26.0 3.2 18 13.7 NE 15 20 8 11 1020.1 1020.1 0.0
21/03:00pm 30.3 26.9 3.9 18 13.5 NE 11 17 6 9 1020.4 1020.4 0.0
21/02:30pm 30.0 26.3 4.7 20 13.1 NE 13 19 7 10 1021.0 1021.0 0.0
21/02:00pm 28.7 24.4 3.0 19 12.8 N 15 26 8 14 1021.6 1021.6 0.0
21/01:30pm 28.5 24.7 4.0 21 12.4 NNE 13 20 7 11 1022.0 1022.0 0.0
21/01:00pm 27.5 23.5 5.1 24 11.5 ENE 15 26 8 14 1022.5 1022.6 0.0
21/12:30pm 26.8 22.9 5.3 25 11.0 NE 15 24 8 13 1022.8 1022.9 0.0
21/12:00pm 25.6 21.6 4.7 26 10.5 NNE 15 20 8 11 1023.3 1023.4 0.0
21/11:30am 25.1 20.9 5.7 28 9.9 NNE 17 24 9 13 1023.7 1023.7 0.0
21/11:00am 23.5 19.0 6.0 32 8.9 NE 19 24 10 13 1024.0 1024.0 0.0
21/10:30am 22.2 18.9 6.2 35 8.1 NNE 13 22 7 12 1024.2 1024.2 0.0
21/10:00am 20.6 16.4 5.9 38 7.3 NNE 17 22 9 12 1024.2 1024.2 0.0
21/09:30am 19.2 14.6 5.5 40 6.7 NE 19 24 10 13 1024.2 1024.2 0.0
21/09:00am 18.1 13.8 5.2 42 6.2 NNE 17 30 9 16 1024.1 1024.1 0.0
21/08:30am 16.4 12.4 5.0 47 5.4 NNE 15 22 8 12 1024.2 1024.2 0.0
21/08:00am 14.2 12.0 6.0 58 3.9 NE 7 15 4 8 1024.1 1024.1 0.0
21/07:30am 10.0 7.8 6.3 78 1.7 ESE 7 9 4 5 1023.8 1023.8 0.0
21/07:00am 8.4 5.8 6.2 86 1.0 ESE 9 11 5 6 1023.6 1023.6 0.0
21/06:30am 7.3 4.7 6.0 91 0.6 SSE 9 11 5 6 1023.4 1023.5 0.0
21/06:00am 7.2 4.9 5.6 89 0.7 SE 7 9 4 5 1023.1 1023.2 0.0
21/05:30am 7.4 5.1 5.8 90 0.7 SE 7 7 4 4 1023.0 1023.1 0.0
21/05:00am 8.0 5.8 6.2 88 0.8 ESE 7 9 4 5 1023.0 1023.1 0.0
21/04:30am 8.3 5.8 6.6 89 0.8 ESE 9 13 5 7 1023.0 1023.1 0.0
21/04:00am 8.6 6.1 6.7 88 0.9 ESE 9 11 5 6 1023.0 1023.1 0.0
21/03:30am 8.8 5.9 6.6 86 1.0 ESE 11 17 6 9 1023.2 1023.3 0.0
21/03:00am 8.8 6.3 6.6 86 1.0 SE 9 13 5 7 1023.7 1023.7 0.0
21/02:30am 8.8 6.3 6.6 86 1.0 SE 9 11 5 6 1024.0 1024.0 0.0
21/02:00am 9.0 6.5 6.4 84 1.2 ESE 9 11 5 6 1024.2 1024.2 0.0
21/01:30am 9.7 6.8 6.7 81 1.4 ESE 11 13 6 7 1024.5 1024.5 0.0
21/01:00am 10.6 7.3 6.5 76 1.9 ESE 13 17 7 9 1024.8 1024.8 0.0
21/12:30am 11.2 7.8 6.0 70 2.4 SE 13 17 7 9 1025.2 1025.2 0.0
21/12:00am 11.4 8.4 5.8 68 2.6 ESE 11 15 6 8 1025.3 1025.3 0.0
 
Date/Time
CDT
Temp
°C
App
Temp
°C
Dew
Point
Rel
Hum
%
Delta-T
°C
Wind Press
QNH
hPa
Press
MSL
hPa
Rain
since 9 am
mm
Dir
 
Spd
km/h
Gust
km/h
Spd
kts
Gust
kts
20/11:30pm 12.0 8.5 5.5 64 3.0 ESE 13 17 7 9 1025.4 1025.4 0.0
20/11:00pm 12.4 8.8 5.2 61 3.3 ESE 13 19 7 10 1025.5 1025.5 0.0
20/10:30pm 13.2 9.2 4.7 56 3.9 ESE 15 20 8 11 1025.6 1025.6 0.0
20/10:00pm 13.9 9.7 4.0 51 4.5 SE 15 20 8 11 1025.6 1025.6 0.0
20/09:30pm 14.3 10.1 3.7 49 4.8 SE 15 20 8 11 1025.7 1025.7 0.0
20/09:00pm 15.0 11.2 3.8 47 5.1 SE 13 19 7 10 1025.8 1025.8 0.0
20/08:30pm 15.7 11.2 4.0 45 5.4 ESE 17 22 9 12 1025.4 1025.4 0.0
20/08:00pm 16.7 12.2 4.3 43 5.8 ESE 17 24 9 13 1025.1 1025.1 0.0
20/07:30pm 17.3 13.4 5.2 45 5.8 ESE 15 22 8 12 1024.9 1024.9 0.0
20/07:00pm 18.8 13.8 4.6 39 6.8 ESE 20 28 11 15 1024.8 1024.8 0.0
20/06:30pm 19.8 14.8 4.7 37 7.3 ESE 20 28 11 15 1024.6 1024.6 0.0

Other Formats:

Comma delimited format used in spreadsheet applications
http://www.bom.gov.au/fwo/IDS60801/IDS60801.94817.axf

JavaScript Object Notation format (JSON) in row-major order
http://www.bom.gov.au/fwo/IDS60801/IDS60801.94817.json